createdAt,value
2023-02-22T00:00:48.309Z,50.72
2023-02-22T00:03:17.220Z,54.87
2023-02-22T00:05:47.418Z,52.33
2023-02-22T00:08:16.636Z,54.17
2023-02-22T00:10:44.645Z,55.25
2023-02-22T00:13:14.295Z,59.17
2023-02-22T00:15:41.525Z,54.50
2023-02-22T00:18:12.447Z,54.58
2023-02-22T00:20:40.032Z,51.15
2023-02-22T00:23:09.367Z,48.35
2023-02-22T00:25:36.550Z,55.22
2023-02-22T00:28:04.917Z,47.37
2023-02-22T00:30:33.894Z,50.38
2023-02-22T00:33:00.874Z,47.70
2023-02-22T00:35:30.058Z,53.05
2023-02-22T00:37:59.409Z,52.53
2023-02-22T00:40:31.859Z,46.47
2023-02-22T00:43:00.002Z,49.45
2023-02-22T00:45:28.877Z,48.85
2023-02-22T00:47:56.304Z,42.15
2023-02-22T00:50:24.863Z,49.08
2023-02-22T00:52:52.388Z,50.83
2023-02-22T00:55:23.101Z,44.28
2023-02-22T00:57:50.078Z,46.47
2023-02-22T01:00:20.411Z,45.00
2023-02-22T01:02:50.785Z,40.00
2023-02-22T01:05:22.289Z,43.73
2023-02-22T01:07:50.207Z,39.53
2023-02-22T01:10:20.469Z,40.42
2023-02-22T01:12:48.119Z,38.90
2023-02-22T01:15:15.071Z,39.55
2023-02-22T01:17:43.828Z,38.77
2023-02-22T01:20:13.935Z,38.88
2023-02-22T01:22:42.197Z,42.17
2023-02-22T01:25:10.982Z,41.55
2023-02-22T01:27:38.493Z,42.00
2023-02-22T01:30:08.632Z,43.50
2023-02-22T01:32:41.526Z,43.40
2023-02-22T01:35:13.655Z,44.38
2023-02-22T01:37:41.295Z,44.47
2023-02-22T01:40:14.537Z,44.42
2023-02-22T01:42:41.257Z,42.33
2023-02-22T01:45:29.982Z,42.22
2023-02-22T01:48:20.436Z,43.90
2023-02-22T01:50:53.990Z,45.08
2023-02-22T01:53:24.275Z,44.58
2023-02-22T01:55:51.890Z,41.83
2023-02-22T01:58:20.630Z,40.13
2023-02-22T02:00:47.354Z,47.20
2023-02-22T02:03:21.823Z,47.38
2023-02-22T02:05:51.792Z,45.08
2023-02-22T02:08:49.615Z,43.23
2023-02-22T02:11:20.055Z,41.92
2023-02-22T02:13:49.605Z,46.65
2023-02-22T02:16:18.886Z,49.90
2023-02-22T02:18:45.654Z,46.33
2023-02-22T02:21:15.612Z,47.50
2023-02-22T02:23:51.569Z,47.78
2023-02-22T02:26:43.367Z,47.88
2023-02-22T02:29:23.233Z,42.63
2023-02-22T02:32:05.190Z,46.03
2023-02-22T02:34:48.044Z,52.20
2023-02-22T02:37:48.005Z,49.67
2023-02-22T02:40:45.046Z,52.42
2023-02-22T02:43:26.363Z,48.28
2023-02-22T02:46:01.492Z,49.67
2023-02-22T02:48:31.582Z,49.40
2023-02-22T02:51:01.329Z,50.83
2023-02-22T02:53:35.044Z,50.53
2023-02-22T02:56:02.319Z,56.58
2023-02-22T02:58:29.073Z,52.95
2023-02-22T03:00:59.970Z,49.23
2023-02-22T03:03:33.493Z,55.42
2023-02-22T03:06:37.909Z,53.97
2023-02-22T03:09:19.793Z,54.13
2023-02-22T03:12:07.756Z,54.63
2023-02-22T03:14:56.498Z,56.93
2023-02-22T03:17:47.619Z,51.17
2023-02-22T03:20:20.026Z,57.95
2023-02-22T03:22:56.762Z,56.22
2023-02-22T03:25:33.840Z,60.72
2023-02-22T03:28:07.303Z,58.97
2023-02-22T03:30:53.489Z,55.40
2023-02-22T03:33:33.697Z,60.58
2023-02-22T03:36:12.364Z,62.00
2023-02-22T03:38:41.417Z,57.88
2023-02-22T03:41:10.026Z,56.70
2023-02-22T03:43:46.481Z,58.10
2023-02-22T03:46:14.227Z,62.85
2023-02-22T03:48:57.341Z,63.50
2023-02-22T03:51:24.491Z,62.65
2023-02-22T03:53:52.193Z,64.40
2023-02-22T03:56:28.179Z,59.35
2023-02-22T03:58:55.810Z,62.40
2023-02-22T04:01:23.870Z,67.70
2023-02-22T04:03:50.766Z,63.90
2023-02-22T04:06:17.546Z,64.93
2023-02-22T04:08:44.219Z,70.70
2023-02-22T04:11:11.275Z,66.35
2023-02-22T04:13:38.066Z,69.18
2023-02-22T04:16:04.989Z,72.05
2023-02-22T04:18:31.760Z,73.03
2023-02-22T04:20:58.470Z,73.18
2023-02-22T04:23:25.191Z,64.60
2023-02-22T04:25:51.912Z,65.00
2023-02-22T04:28:19.277Z,71.38
2023-02-22T04:30:47.225Z,85.33
2023-02-22T04:33:14.376Z,81.72
2023-02-22T04:35:41.080Z,99.97
2023-02-22T04:38:09.662Z,86.28
2023-02-22T04:40:36.407Z,88.07
2023-02-22T04:43:03.170Z,78.07
2023-02-22T04:45:29.908Z,84.93
2023-02-22T04:47:56.652Z,119.65
2023-02-22T04:50:23.345Z,135.55
2023-02-22T04:52:50.050Z,100.57
2023-02-22T04:55:17.236Z,121.53
2023-02-22T04:57:43.957Z,106.28
2023-02-22T05:00:11.316Z,105.18
2023-02-22T05:02:41.247Z,102.35
2023-02-22T05:05:08.185Z,106.40
2023-02-22T05:07:34.924Z,102.17
2023-02-22T05:10:02.938Z,163.13
2023-02-22T05:12:29.706Z,143.25
2023-02-22T05:14:56.487Z,117.30
2023-02-22T05:17:23.444Z,129.25
2023-02-22T05:19:50.123Z,133.07
2023-02-22T05:22:17.671Z,125.70
2023-02-22T05:24:44.580Z,122.05
2023-02-22T05:27:11.900Z,113.28
2023-02-22T05:29:38.883Z,120.05
2023-02-22T05:32:06.754Z,145.20
2023-02-22T05:34:33.555Z,142.70
2023-02-22T05:37:00.503Z,155.77
2023-02-22T05:39:27.268Z,141.20
2023-02-22T05:41:54.030Z,110.25
2023-02-22T05:44:20.981Z,141.53
2023-02-22T05:46:47.742Z,186.60
2023-02-22T05:49:14.610Z,170.15
2023-02-22T05:51:41.630Z,83.25
2023-02-22T05:54:08.563Z,76.53
2023-02-22T05:56:36.398Z,50.17
2023-02-22T05:59:03.387Z,72.40
2023-02-22T06:01:30.053Z,70.75
2023-02-22T06:03:56.792Z,68.32
2023-02-22T06:06:23.609Z,71.18
2023-02-22T06:08:50.354Z,77.67
2023-02-22T06:11:17.452Z,83.13
2023-02-22T06:13:50.509Z,95.35
2023-02-22T06:16:17.365Z,82.00
2023-02-22T06:18:44.183Z,73.60
2023-02-22T06:21:10.911Z,68.93
2023-02-22T06:23:37.695Z,102.22
2023-02-22T06:26:04.507Z,89.55
2023-02-22T06:28:31.206Z,175.23
2023-02-22T06:30:57.965Z,104.35
2023-02-22T06:33:24.718Z,98.77
2023-02-22T06:35:51.500Z,69.85
2023-02-22T06:38:23.471Z,77.65
2023-02-22T06:40:50.606Z,78.53
2023-02-22T06:43:17.642Z,125.88
2023-02-22T06:45:44.495Z,111.70
2023-02-22T06:48:11.251Z,147.50
2023-02-22T06:50:37.946Z,126.35
2023-02-22T06:53:04.978Z,88.28
2023-02-22T06:55:33.569Z,102.07
2023-02-22T06:58:01.099Z,73.70
2023-02-22T07:00:29.865Z,67.40
2023-02-22T07:02:58.538Z,65.28
2023-02-22T07:05:26.314Z,75.65
2023-02-22T07:07:54.837Z,78.13
2023-02-22T07:10:27.702Z,85.63
2023-02-22T07:12:55.185Z,79.05
2023-02-22T07:15:23.968Z,67.30
2023-02-22T07:17:52.322Z,58.97
2023-02-22T07:20:20.727Z,54.97
2023-02-22T07:22:48.531Z,66.90
2023-02-22T07:25:15.335Z,64.07
2023-02-22T07:27:42.620Z,64.32
2023-02-22T07:30:20.987Z,67.85
2023-02-22T07:32:47.908Z,60.72
2023-02-22T07:35:20.849Z,61.80
2023-02-22T07:37:48.268Z,63.40
2023-02-22T07:40:16.673Z,63.55
2023-02-22T07:43:01.343Z,63.55
2023-02-22T07:45:30.860Z,61.55
2023-02-22T07:47:58.296Z,55.90
2023-02-22T07:50:26.990Z,59.58
2023-02-22T07:52:55.735Z,62.00
2023-02-22T07:55:24.930Z,58.20
2023-02-22T07:57:53.865Z,60.53
2023-02-22T08:00:32.295Z,67.93
2023-02-22T08:03:05.186Z,68.75
2023-02-22T08:05:33.881Z,63.42
2023-02-22T08:08:00.802Z,74.68
2023-02-22T08:10:27.964Z,81.03
2023-02-22T08:12:55.942Z,78.30
2023-02-22T08:15:34.982Z,70.63
2023-02-22T08:18:03.061Z,60.00
2023-02-22T08:20:30.134Z,54.10
2023-02-22T08:22:58.250Z,50.53
2023-02-22T08:25:28.113Z,48.20
2023-02-22T08:28:02.160Z,50.00
2023-02-22T08:30:31.227Z,47.55
2023-02-22T08:32:59.407Z,51.00
2023-02-22T08:35:27.617Z,47.53
2023-02-22T08:37:58.672Z,53.07
2023-02-22T08:40:27.821Z,43.38
2023-02-22T08:42:54.901Z,37.85
2023-02-22T08:45:21.741Z,38.08
2023-02-22T08:47:48.502Z,35.72
2023-02-22T08:50:24.863Z,36.23
2023-02-22T08:52:53.400Z,40.97
2023-02-22T08:55:26.114Z,44.13
2023-02-22T08:57:52.860Z,48.50
2023-02-22T09:00:30.062Z,45.72
2023-02-22T09:02:56.969Z,46.47
2023-02-22T09:05:23.810Z,42.83
2023-02-22T09:07:50.609Z,44.42
2023-02-22T09:10:24.603Z,45.67
2023-02-22T09:12:52.342Z,52.65
2023-02-22T09:15:20.367Z,56.67
2023-02-22T09:17:47.418Z,51.88
2023-02-22T09:20:17.870Z,54.65
2023-02-22T09:22:48.863Z,41.72
2023-02-22T09:25:17.550Z,39.35
2023-02-22T09:27:47.948Z,34.67
2023-02-22T09:30:24.858Z,33.17
2023-02-22T09:32:56.596Z,34.88
2023-02-22T09:35:29.863Z,30.75
2023-02-22T09:37:58.184Z,33.05
2023-02-22T09:40:29.851Z,31.40
2023-02-22T09:43:07.302Z,32.15
2023-02-22T09:46:02.577Z,31.63
2023-02-22T09:48:33.989Z,33.17
2023-02-22T09:51:03.471Z,31.55
2023-02-22T09:53:42.103Z,31.40
2023-02-22T09:56:15.321Z,31.25
2023-02-22T09:58:46.717Z,34.75
2023-02-22T10:01:39.201Z,29.00
2023-02-22T10:04:36.622Z,28.23
2023-02-22T10:07:18.363Z,28.67
2023-02-22T10:09:48.346Z,31.42
2023-02-22T10:12:53.299Z,32.53
2023-02-22T10:15:32.366Z,30.70
2023-02-22T10:18:20.829Z,29.40
2023-02-22T10:21:13.116Z,30.97
2023-02-22T10:24:05.138Z,28.60
2023-02-22T10:26:42.918Z,28.83
2023-02-22T10:29:18.736Z,28.70
2023-02-22T10:31:56.851Z,29.30
2023-02-22T10:34:43.626Z,28.17
2023-02-22T10:37:24.336Z,30.10
2023-02-22T10:40:12.717Z,29.63
2023-02-22T10:42:39.590Z,28.73
2023-02-22T10:45:19.594Z,29.67
2023-02-22T10:47:47.317Z,27.07
2023-02-22T10:50:15.765Z,28.25
2023-02-22T10:52:42.581Z,29.80
2023-02-22T10:55:17.467Z,27.38
2023-02-22T10:57:49.795Z,28.90
2023-02-22T11:00:29.671Z,27.30
2023-02-22T11:03:01.555Z,28.80
2023-02-22T11:05:47.528Z,26.27
2023-02-22T11:08:34.617Z,26.10
2023-02-22T11:11:03.525Z,27.15
2023-02-22T11:13:38.464Z,24.97
2023-02-22T11:16:36.355Z,27.88
2023-02-22T11:19:12.329Z,27.48
2023-02-22T11:21:40.187Z,24.52
2023-02-22T11:26:49.353Z,25.43
2023-02-22T11:29:22.448Z,25.70
2023-02-22T11:31:50.518Z,27.33
2023-02-22T11:34:39.222Z,25.08
2023-02-22T11:37:29.336Z,24.45
2023-02-22T11:40:19.604Z,24.03
2023-02-22T11:42:47.318Z,24.00
2023-02-22T11:45:20.751Z,25.35
2023-02-22T11:47:59.019Z,24.95
2023-02-22T11:50:33.569Z,25.13
2023-02-22T11:53:26.550Z,22.23
2023-02-22T11:55:54.401Z,24.05
2023-02-22T11:58:29.693Z,25.52
2023-02-22T12:01:38.202Z,24.15
2023-02-22T12:04:15.926Z,22.55
2023-02-22T12:06:47.460Z,24.07
2023-02-22T12:09:36.873Z,22.35
2023-02-22T12:12:24.613Z,24.90
2023-02-22T12:14:59.998Z,26.00
2023-02-22T12:17:59.986Z,24.77
2023-02-22T12:20:47.642Z,24.97
2023-02-22T12:23:50.739Z,25.13
2023-02-22T12:26:38.895Z,24.77
2023-02-22T12:29:24.746Z,27.83
2023-02-22T12:32:09.919Z,24.25
2023-02-22T12:34:43.701Z,24.63
2023-02-22T12:37:18.769Z,24.10
2023-02-22T12:40:09.297Z,25.52
2023-02-22T12:42:42.239Z,23.98
2023-02-22T12:45:16.906Z,23.58
2023-02-22T12:47:54.828Z,22.17
2023-02-22T12:50:28.548Z,23.73
2023-02-22T12:53:10.953Z,23.67
2023-02-22T12:55:50.472Z,22.85
2023-02-22T12:58:41.772Z,23.60
2023-02-22T13:01:21.559Z,24.47
2023-02-22T13:03:49.300Z,22.92
2023-02-22T13:06:48.611Z,22.02
2023-02-22T13:09:46.534Z,23.20
2023-02-22T13:12:20.922Z,22.30
2023-02-22T13:15:10.913Z,21.77
2023-02-22T13:18:05.629Z,22.35
2023-02-22T13:20:45.385Z,21.35
2023-02-22T13:23:52.404Z,21.73
2023-02-22T13:26:27.199Z,29.77
2023-02-22T13:29:08.777Z,22.03
2023-02-22T13:31:57.012Z,25.05
2023-02-22T13:34:44.950Z,26.65
2023-02-22T13:37:11.676Z,22.15
2023-02-22T13:39:57.207Z,21.58
2023-02-22T13:42:38.064Z,22.87
2023-02-22T13:45:10.746Z,23.45
2023-02-22T13:47:46.225Z,23.10
2023-02-22T13:50:43.445Z,22.23
2023-02-22T13:53:20.854Z,23.23
2023-02-22T13:55:54.424Z,21.80
2023-02-22T13:58:21.194Z,22.65
2023-02-22T14:00:59.178Z,21.45
2023-02-22T14:03:36.380Z,25.30
2023-02-22T14:06:43.014Z,23.60
2023-02-22T14:09:19.261Z,23.03
2023-02-22T14:11:47.651Z,26.98
2023-02-22T14:14:17.790Z,26.75
2023-02-22T14:16:45.133Z,24.98
2023-02-22T14:19:23.848Z,26.08
2023-02-22T14:22:02.611Z,29.03
2023-02-22T14:24:47.561Z,29.08
2023-02-22T14:27:15.641Z,27.35
2023-02-22T14:29:57.690Z,25.95
2023-02-22T14:32:35.204Z,26.73
2023-02-22T14:35:26.538Z,26.13
2023-02-22T14:37:58.371Z,26.80
2023-02-22T14:40:34.926Z,25.27
2023-02-22T14:43:11.039Z,24.55
2023-02-22T14:45:46.136Z,27.80
2023-02-22T14:48:20.261Z,29.77
2023-02-22T14:50:54.354Z,26.30
2023-02-22T14:53:25.315Z,27.98
2023-02-22T14:55:58.765Z,26.50
2023-02-22T14:58:49.565Z,27.85
2023-02-22T15:01:27.205Z,28.87
2023-02-22T15:04:07.762Z,27.05
2023-02-22T15:06:35.436Z,29.38
2023-02-22T15:09:14.349Z,29.50
2023-02-22T15:11:41.267Z,27.63
2023-02-22T15:14:25.662Z,31.33
2023-02-22T15:16:59.950Z,27.85
2023-02-22T15:19:30.160Z,31.95
2023-02-22T15:21:59.275Z,28.52
2023-02-22T15:24:29.637Z,33.55
2023-02-22T15:27:05.640Z,31.60
2023-02-22T15:29:39.716Z,31.27
2023-02-22T15:32:25.564Z,30.17
2023-02-22T15:34:52.360Z,31.38
2023-02-22T15:37:25.382Z,32.80
2023-02-22T15:39:59.377Z,32.10
2023-02-22T15:42:29.720Z,34.05
2023-02-22T15:44:58.026Z,31.50
2023-02-22T15:47:30.572Z,33.38
2023-02-22T15:50:23.689Z,37.85
2023-02-22T15:52:57.962Z,34.03
2023-02-22T15:55:34.375Z,33.83
2023-02-22T15:58:10.839Z,35.05
2023-02-22T16:00:41.330Z,36.53
2023-02-22T16:03:19.438Z,38.83
2023-02-22T16:05:52.574Z,42.23
2023-02-22T16:08:23.671Z,44.03
2023-02-22T16:11:01.212Z,46.45
2023-02-22T16:13:32.749Z,53.80
2023-02-22T16:16:02.030Z,45.22
2023-02-22T16:18:34.954Z,50.93
2023-02-22T16:21:13.074Z,49.40
2023-02-22T16:23:48.061Z,54.70
2023-02-22T16:26:24.663Z,62.40
2023-02-22T16:28:53.087Z,57.70
2023-02-22T16:31:21.902Z,49.47
2023-02-22T16:33:51.264Z,58.75
2023-02-22T16:36:20.085Z,55.30
2023-02-22T16:38:48.572Z,58.60
2023-02-22T16:41:19.911Z,52.03
2023-02-22T16:43:50.831Z,54.23
2023-02-22T16:46:19.770Z,57.70
2023-02-22T16:48:46.808Z,58.63
2023-02-22T16:51:26.714Z,68.32
2023-02-22T16:53:54.642Z,69.43
2023-02-22T16:56:29.614Z,66.93
2023-02-22T16:59:01.026Z,71.72
2023-02-22T17:01:27.750Z,68.28
2023-02-22T17:03:54.546Z,71.22
2023-02-22T17:06:21.467Z,77.97
2023-02-22T17:08:51.929Z,70.93
2023-02-22T17:11:19.125Z,76.10
2023-02-22T17:13:47.254Z,81.00
2023-02-22T17:16:15.237Z,78.78
2023-02-22T17:18:42.235Z,83.88
2023-02-22T17:21:11.119Z,82.30
2023-02-22T17:23:38.074Z,83.97
2023-02-22T17:26:05.073Z,84.88
2023-02-22T17:28:31.981Z,90.28
2023-02-22T17:31:02.881Z,88.22
2023-02-22T17:33:33.380Z,90.17
2023-02-22T17:36:02.053Z,85.40
2023-02-22T17:38:30.355Z,72.90
2023-02-22T17:40:59.008Z,74.45
2023-02-22T17:43:27.979Z,67.30
2023-02-22T17:45:55.300Z,70.30
2023-02-22T17:48:24.218Z,70.03
2023-02-22T17:50:51.865Z,76.00
2023-02-22T17:53:21.858Z,67.65
2023-02-22T17:55:49.590Z,58.50
2023-02-22T17:58:17.087Z,66.43
2023-02-22T18:00:46.844Z,70.72
2023-02-22T18:03:16.398Z,72.53
2023-02-22T18:05:48.894Z,74.03
2023-02-22T18:08:16.167Z,72.93
2023-02-22T18:10:44.423Z,92.77
2023-02-22T18:13:18.055Z,91.60
2023-02-22T18:15:46.419Z,88.90
2023-02-22T18:18:17.624Z,91.78
2023-02-22T18:20:46.461Z,91.18
2023-02-22T18:23:16.203Z,98.57
2023-02-22T18:26:07.765Z,109.03
2023-02-22T18:28:37.595Z,112.72
2023-02-22T18:31:15.865Z,97.43
2023-02-22T18:33:44.018Z,98.72
2023-02-22T18:36:11.519Z,90.67
2023-02-22T18:38:43.171Z,96.43
2023-02-22T18:41:13.908Z,99.25
2023-02-22T18:43:41.558Z,90.90
2023-02-22T18:46:18.061Z,87.10
2023-02-22T18:48:46.151Z,89.67
2023-02-22T18:51:15.562Z,85.90
2023-02-22T18:53:47.688Z,93.03
2023-02-22T18:56:21.589Z,84.47
2023-02-22T18:58:52.355Z,92.07
2023-02-22T19:01:19.410Z,83.73
2023-02-22T19:03:49.562Z,87.45
2023-02-22T19:06:17.194Z,91.22
2023-02-22T19:08:45.562Z,83.40
2023-02-22T19:11:21.882Z,78.05
2023-02-22T19:13:54.640Z,68.90
2023-02-22T19:16:23.090Z,65.32
2023-02-22T19:18:52.386Z,67.38
2023-02-22T19:21:21.739Z,62.38
2023-02-22T19:23:49.361Z,65.90
2023-02-22T19:26:23.980Z,68.50
2023-02-22T19:28:52.536Z,69.13
2023-02-22T19:31:26.484Z,69.60
2023-02-22T19:33:53.487Z,67.32
2023-02-22T19:36:25.113Z,68.13
2023-02-22T19:38:51.937Z,59.97
2023-02-22T19:41:22.509Z,72.47
2023-02-22T19:43:51.471Z,75.20
2023-02-22T19:46:21.094Z,74.00
2023-02-22T19:48:49.223Z,76.00
2023-02-22T19:51:19.340Z,75.23
2023-02-22T19:53:46.893Z,77.80
2023-02-22T19:56:17.017Z,93.03
2023-02-22T19:58:46.407Z,95.82
2023-02-22T20:01:15.194Z,99.00
2023-02-22T20:03:42.500Z,111.33
2023-02-22T20:06:11.486Z,111.15
2023-02-22T20:08:42.186Z,111.13
2023-02-22T20:11:10.767Z,111.03
2023-02-22T20:13:39.300Z,99.10
2023-02-22T20:16:06.573Z,109.63
2023-02-22T20:18:33.524Z,88.30
2023-02-22T20:21:00.355Z,102.07
2023-02-22T20:23:27.141Z,103.68
2023-02-22T20:25:57.170Z,116.93
2023-02-22T20:28:24.272Z,118.33
2023-02-22T20:30:51.733Z,135.00
2023-02-22T20:33:20.032Z,123.57
2023-02-22T20:35:47.487Z,137.07
2023-02-22T20:38:14.569Z,142.32
2023-02-22T20:40:42.548Z,156.70
2023-02-22T20:43:09.797Z,150.38
2023-02-22T20:45:38.123Z,146.63
2023-02-22T20:48:05.510Z,141.60
2023-02-22T20:50:34.823Z,158.43
2023-02-22T20:53:01.606Z,131.17
2023-02-22T20:55:28.324Z,145.65
2023-02-22T20:57:55.032Z,141.77
2023-02-22T21:00:21.901Z,137.35
2023-02-22T21:02:48.749Z,174.45
2023-02-22T21:05:15.562Z,148.10
2023-02-22T21:07:42.258Z,159.63
2023-02-22T21:10:09.130Z,148.75
2023-02-22T21:12:36.039Z,148.77
2023-02-22T21:15:02.771Z,142.05
2023-02-22T21:17:30.825Z,156.47
2023-02-22T21:19:58.520Z,160.48
2023-02-22T21:22:25.547Z,164.98
2023-02-22T21:24:53.220Z,149.27
2023-02-22T21:27:20.068Z,152.40
2023-02-22T21:29:47.243Z,156.10
2023-02-22T21:32:14.148Z,154.18
2023-02-22T21:34:41.147Z,135.73
2023-02-22T21:37:08.334Z,144.85
2023-02-22T21:39:35.553Z,140.70
2023-02-22T21:42:02.740Z,120.47
2023-02-22T21:44:30.084Z,121.13
2023-02-22T21:46:57.276Z,131.20
2023-02-22T21:49:24.956Z,121.65
2023-02-22T21:51:52.538Z,124.72
2023-02-22T21:54:19.838Z,135.07
2023-02-22T21:56:46.678Z,121.18
2023-02-22T21:59:16.370Z,138.65
2023-02-22T22:01:55.380Z,132.40
2023-02-22T22:04:31.380Z,126.65
2023-02-22T22:07:00.099Z,130.47
2023-02-22T22:09:32.608Z,134.00
2023-02-22T22:12:03.156Z,127.80
2023-02-22T22:14:30.434Z,118.90
2023-02-22T22:16:58.832Z,125.93
2023-02-22T22:19:27.411Z,100.43
2023-02-22T22:21:54.467Z,94.85
2023-02-22T22:24:22.840Z,110.30
2023-02-22T22:26:54.527Z,106.80
2023-02-22T22:29:26.619Z,122.38
2023-02-22T22:31:53.444Z,123.03
2023-02-22T22:34:20.505Z,111.40
2023-02-22T22:36:47.867Z,122.75
2023-02-22T22:39:14.612Z,120.72
2023-02-22T22:41:44.005Z,120.13
2023-02-22T22:44:12.049Z,117.83
2023-02-22T22:46:42.230Z,112.85
2023-02-22T22:49:11.405Z,119.88
2023-02-22T22:51:40.963Z,127.13
2023-02-22T22:54:09.529Z,130.68
2023-02-22T22:56:38.108Z,113.47
2023-02-22T22:59:07.621Z,118.80
2023-02-22T23:01:39.195Z,132.30
2023-02-22T23:04:09.565Z,124.38
2023-02-22T23:06:42.050Z,124.25
2023-02-22T23:09:21.762Z,126.67
2023-02-22T23:12:09.053Z,117.78
2023-02-22T23:14:44.240Z,130.07
2023-02-22T23:17:26.863Z,116.47
2023-02-22T23:19:53.644Z,117.32
2023-02-22T23:22:21.234Z,119.33
2023-02-22T23:24:48.141Z,128.32
2023-02-22T23:27:15.188Z,160.00
2023-02-22T23:29:46.455Z,150.73
2023-02-22T23:32:14.106Z,150.15
2023-02-22T23:34:41.652Z,115.97
2023-02-22T23:37:10.662Z,120.78
2023-02-22T23:39:38.090Z,117.70
2023-02-22T23:42:05.044Z,122.35
2023-02-22T23:44:32.436Z,135.45
2023-02-22T23:46:59.122Z,142.90
2023-02-22T23:49:27.522Z,128.88
2023-02-22T23:51:54.360Z,141.98
2023-02-22T23:54:24.379Z,125.95
2023-02-22T23:56:56.771Z,112.47
2023-02-22T23:59:26.525Z,128.70
